DW6873 Weather Reports


Display with metric or nautical units.
time (UTC)temp
F
wind
direction
speed
MPH
gust
MPH
rain 1hr
in
rain 24hr
in
rain mn
in
humidity
%
barometer
mb
20200806121555 53 163 2.0 4.0 0.00 0.00 0.00 97 1010.9
20200806120046 52 195 0.0 0.0 0.00 0.00 0.00 96 1010.9
20200806113030 53 195 0.0 0.0 0.00 0.00 0.00 95 1010.9
20200806111548 53 195 0.0 0.0 0.00 0.00 0.00 95 1011.0
20200806110051 54 195 0.0 0.0 0.00 0.00 0.00 95 1010.9
20200806103030 55 195 0.0 0.0 0.00 0.00 0.00 95 1010.9
20200806101532 56 195 0.0 3.0 0.00 0.00 0.00 94 1010.9
20200806100017 55 228 0.0 1.0 0.00 0.00 0.00 94 1010.9
20200806093030 57 205 2.0 3.0 0.00 0.00 0.00 95 1011.0
20200806083020 58 207 1.0 3.0 0.00 0.00 0.00 93 1011.0
20200806081538 57 212 1.0 3.0 0.00 0.00 0.00 93 1011.0
20200806080026 57 209 1.0 3.0 0.00 0.00 0.00 93 1011.0
20200806073032 56 219 0.0 1.0 0.00 0.00 0.00 94 1011.1
20200806071515 56 162 0.0 0.0 0.00 0.00 0.00 94 1011.1
20200806070014 57 162 0.0 1.0 0.00 0.00 0.00 93 1011.1
20200806063013 57 226 0.0 2.0 0.00 0.00 0.00 94 1011.1
20200806061538 56 214 0.0 1.0 0.00 0.00 0.00 94 1011.2
20200806060041 56 214 0.0 1.0 0.00 0.00 0.00 92 1011.2
20200806053037 57 209 0.0 2.0 0.00 0.00 0.00 92 1011.2
20200806051512 55 217 0.0 0.0 0.00 0.00 0.00 94 1011.2
20200806050014 55 136 0.0 0.0 0.00 0.00 0.00 92 1011.4
20200806043008 57 136 0.0 0.0 0.00 0.00 0.00 89 1011.4
20200806041505 59 136 0.0 1.0 0.00 0.00 0.00 89 1011.3
20200806040017 60 246 0.0 1.0 0.00 0.00 0.00 87 1011.4
20200806033018 64 110 1.0 3.0 0.00 0.00 0.00 80 1011.2
20200806031510 63 117 0.0 1.0 0.00 0.00 0.00 80 1011.1
20200806030023 65 115 1.0 3.0 0.00 0.00 0.00 77 1010.9
20200806023108 66 110 1.0 1.0 0.00 0.00 0.00 75 1010.7
20200806021807 68 109 0.0 2.0 0.00 0.00 0.00 72 1010.4
20200806020216 69 115 0.0 1.0 0.00 0.00 0.00 69 1010.4
20200806011706 76 72 1.0 5.0 0.00 0.00 0.00 57 1010.1
20200806010137 76 66 2.0 5.0 0.00 0.00 0.00 56 1010.2
20200806003236 76 12 1.0 3.0 0.00 0.00 0.00 55 1010.3
20200806001635 77 27 3.0 8.0 0.00 0.00 0.00 55 1010.4
20200806000253 78 356 2.0 6.0 0.00 0.00 0.00 54 1010.6
20200805233138 78 61 2.0 10.0 0.00 0.00 0.00 52 1010.6
20200805231625 78 352 2.0 5.0 0.00 0.00 0.00 51 1010.7
20200805230126 78 22 4.0 9.0 0.00 0.00 0.00 53 1010.7
20200805223109 78 344 3.0 7.0 0.00 0.00 0.00 53 1010.8
20200805221700 78 75 2.0 9.0 0.00 0.00 0.00 56 1010.9
20200805220114 77 343 3.0 10.0 0.00 0.00 0.00 55 1010.9
20200805213208 78 346 6.0 10.0 0.00 0.00 0.00 51 1011.0
20200805211742 77 21 4.0 10.0 0.00 0.00 0.00 55 1011.1
20200805210118 77 30 4.0 9.0 0.00 0.00 0.00 55 1011.1
20200805203024 76 44 5.0 10.0 0.00 0.00 0.00 56 1011.3
20200805201517 76 348 5.0 16.0 0.00 0.00 0.00 56 1011.3
20200805200009 76 336 6.0 14.0 0.00 0.00 0.00 56 1011.4
20200805194649 76 352 8.0 14.0 0.00 0.00 0.00 60 1011.3
20200805193224 75 23 7.0 15.0 0.00 0.00 0.00 57 1011.4
20200805191656 75 338 5.0 16.0 0.00 0.00 0.00 59 1011.5
20200805190151 75 325 9.0 14.0 0.00 0.00 0.00 58 1011.4
20200805184633 74 352 5.0 12.0 0.00 0.00 0.00 62 1011.5
20200805183228 73 340 5.0 13.0 0.00 0.00 0.00 63 1011.5
20200805181738 73 343 3.0 9.0 0.00 0.00 0.00 65 1011.6
20200805180133 73 341 2.0 11.0 0.00 0.00 0.00 70 1011.5
20200805174612 71 331 5.0 11.0 0.00 0.00 0.00 71 1011.7
20200805173105 71 356 5.0 12.0 0.00 0.00 0.00 73 1011.7
20200805171649 71 343 5.0 12.0 0.00 0.00 0.00 74 1011.9
20200805164632 70 347 5.0 10.0 0.00 0.00 0.00 79 1011.7
20200805163246 68 39 4.0 10.0 0.00 0.00 0.00 83 1011.7
20200805161546 66 5 6.0 10.0 0.00 0.00 0.00 90 1011.7
20200805160140 64 333 6.0 13.0 0.00 0.00 0.00 91 1011.9
20200805154630 65 331 6.0 11.0 0.00 0.00 0.00 91 1011.8
20200805153050 64 334 4.0 12.0 0.00 0.00 0.00 91 1011.6
20200805151600 63 333 5.0 9.0 0.00 0.00 0.00 93 1011.5
20200805150039 62 357 4.0 8.0 0.00 0.00 0.00 96 1011.4
20200805144604 61 338 3.0 7.0 0.00 0.00 0.00 96 1011.3
20200805143114 60 336 4.0 6.0 0.00 0.00 0.00 96 1011.4
20200805141531 60 21 3.0 5.0 0.00 0.00 0.00 97 1011.3
20200805140108 60 339 1.0 6.0 0.00 0.00 0.00 97 1011.2
20200805134522 59 357 4.0 10.0 0.00 0.00 0.00 97 1011.1
20200805133036 59 354 6.0 12.0 0.00 0.00 0.00 96 1011.0
20200805131600 59 352 5.0 9.0 0.00 0.00 0.00 97 1010.9
20200805130015 59 326 0.0 4.0 0.00 0.00 0.00 97 1010.7
20200805124530 57 321 0.0 3.0 0.00 0.00 0.00 97 1010.8
20200805123020 56 228 0.0 1.0 0.00 0.00 0.00 97 1010.7